Time;durP1;ratioP1;P1;durP2;ratioP2;P2;SDS_P1;SDS_P2;PMS_P1;PMS_P2;Temp;Humidity;BMP_temperature;BMP_pressure;BME280_temperature;BME280_humidity;BME280_pressure;Samples;Min_cycle;Max_cycle;Signal;HPM_P1;HPM_P2
2023/12/13 00:01:26;;;;;;;0.00;0.00;;;;;;;15.69;61.27;99634.06;5053877;28;20040;-80
2023/12/13 00:03:52;;;;;;;1.20;1.20;;;;;;;16.17;60.15;99633.41;5053990;28;20030;-80
2023/12/13 00:06:17;;;;;;;1.57;1.50;;;;;;;15.72;59.94;99628.63;5058935;28;20074;-80
2023/12/13 00:08:42;;;;;;;0.10;0.10;;;;;;;17.03;55.90;99625.31;5054454;28;20024;-80
2023/12/13 00:11:08;;;;;;;0.53;0.40;;;;;;;17.10;55.44;99626.66;5061846;28;20078;-80
2023/12/13 00:13:34;;;;;;;0.43;0.43;;;;;;;15.90;59.12;99620.75;5054263;28;20407;-80
2023/12/13 00:16:03;;;;;;;0.00;0.00;;;;;;;16.07;59.03;99623.38;5061463;28;20029;-80
2023/12/13 00:18:29;;;;;;;0.00;0.00;;;;;;;16.47;56.98;99615.09;5049338;28;20370;-80
2023/12/13 00:20:54;;;;;;;2.80;1.23;;;;;;;16.00;59.03;99621.13;5077776;28;20043;-81
2023/12/13 00:23:20;;;;;;;0.00;0.00;;;;;;;15.39;61.30;99618.84;5048900;28;20874;-80
2023/12/13 00:25:45;;;;;;;0.60;0.50;;;;;;;16.10;59.07;99627.59;5053969;28;20043;-80
2023/12/13 00:28:10;;;;;;;1.17;1.17;;;;;;;15.85;58.70;99625.41;5069576;28;20060;-80
2023/12/13 00:30:36;;;;;;;0.00;0.00;;;;;;;15.78;59.88;99627.44;5044487;28;20404;-80
2023/12/13 00:33:01;;;;;;;0.00;0.00;;;;;;;16.33;58.07;99623.75;5068401;28;20079;-79
2023/12/13 00:35:27;;;;;;;0.13;0.13;;;;;;;15.56;60.55;99619.78;5053033;28;20020;-79
2023/12/13 00:37:54;;;;;;;2.00;0.30;;;;;;;15.25;60.88;99618.69;5054138;28;20115;-79
2023/12/13 00:40:22;;;;;;;0.00;0.00;;;;;;;15.48;60.51;99627.22;5052919;28;20507;-80
2023/12/13 00:42:50;;;;;;;1.47;1.37;;;;;;;15.46;60.37;99626.44;5048991;28;20104;-80
2023/12/13 00:45:15;;;;;;;0.40;0.40;;;;;;;15.55;60.82;99631.25;5047505;28;20029;-80
2023/12/13 00:47:41;;;;;;;0.00;0.00;;;;;;;15.59;59.91;99622.25;5072975;28;20021;-80
2023/12/13 00:50:08;;;;;;;0.00;0.00;;;;;;;15.76;59.13;99630.16;5066043;28;20029;-80
2023/12/13 00:52:33;;;;;;;0.20;0.20;;;;;;;15.99;59.61;99625.56;5052896;28;20029;-80
2023/12/13 00:55:04;;;;;;;0.00;0.00;;;;;;;16.59;57.02;99625.00;5057685;28;20031;-80
2023/12/13 00:57:30;;;;;;;0.67;0.67;;;;;;;15.64;59.21;99616.78;5058678;28;20113;-80
2023/12/13 00:59:55;;;;;;;1.03;0.20;;;;;;;15.73;59.53;99622.44;5038168;28;20154;-80
2023/12/13 01:02:20;;;;;;;0.00;0.00;;;;;;;15.99;58.43;99620.28;5052732;28;20481;-80
2023/12/13 01:04:46;;;;;;;0.77;0.77;;;;;;;16.13;58.21;99621.31;5050835;28;20477;-81
2023/12/13 01:07:11;;;;;;;0.30;0.20;;;;;;;16.19;57.99;99616.59;5050907;28;20094;-81
2023/12/13 01:09:39;;;;;;;0.00;0.00;;;;;;;16.15;58.07;99620.31;5054265;28;20025;-80
2023/12/13 01:12:05;;;;;;;2.20;0.77;;;;;;;16.07;59.08;99623.38;5053228;28;20032;-80
2023/12/13 01:14:30;;;;;;;0.00;0.00;;;;;;;16.47;58.01;99616.91;5051321;28;20025;-80
2023/12/13 01:16:56;;;;;;;0.00;0.00;;;;;;;15.98;59.04;99618.56;5057106;28;20563;-81
2023/12/13 01:19:21;;;;;;;0.00;0.00;;;;;;;16.16;57.45;99618.56;5053109;28;20447;-81
2023/12/13 01:21:47;;;;;;;0.00;0.00;;;;;;;16.47;56.91;99614.28;5052847;28;20108;-80
2023/12/13 01:24:12;;;;;;;0.10;0.10;;;;;;;16.79;55.29;99615.16;5051133;28;20025;-81
2023/12/13 01:26:38;;;;;;;0.00;0.00;;;;;;;16.55;56.44;99617.34;5054378;28;20400;-81
2023/12/13 01:29:03;;;;;;;0.10;0.10;;;;;;;16.13;56.70;99622.19;5047918;28;20025;-80
2023/12/13 01:31:28;;;;;;;0.00;0.00;;;;;;;15.67;57.45;99620.09;5053249;28;20163;-80
2023/12/13 01:33:54;;;;;;;0.00;0.00;;;;;;;16.35;56.12;99619.28;5046770;28;20060;-80
2023/12/13 01:36:19;;;;;;;0.07;0.07;;;;;;;15.71;57.80;99626.91;5056315;28;20029;-80
2023/12/13 01:38:44;;;;;;;0.00;0.00;;;;;;;16.05;57.89;99635.75;5053009;28;20028;-81
2023/12/13 01:41:10;;;;;;;0.00;0.00;;;;;;;16.52;56.86;99628.91;5051747;28;20527;-80
2023/12/13 01:43:35;;;;;;;0.17;0.17;;;;;;;15.62;58.08;99637.94;5051090;28;20049;-80
2023/12/13 01:46:01;;;;;;;0.20;0.20;;;;;;;15.73;58.81;99630.34;5050533;28;20052;-80
2023/12/13 01:48:27;;;;;;;0.10;0.10;;;;;;;15.56;59.59;99627.69;5052537;28;20032;-80
2023/12/13 01:50:55;;;;;;;0.00;0.00;;;;;;;15.61;60.08;99636.22;5051235;28;20523;-80
2023/12/13 01:53:23;;;;;;;0.00;0.00;;;;;;;15.74;59.04;99641.72;5047197;28;20128;-80
2023/12/13 01:55:51;;;;;;;0.00;0.00;;;;;;;15.68;60.06;99648.13;5041086;28;20079;-80
2023/12/13 01:58:18;;;;;;;0.50;0.50;;;;;;;16.26;58.07;99636.41;5050374;28;20037;-80
2023/12/13 02:00:44;;;;;;;0.37;0.33;;;;;;;15.87;59.19;99642.00;5050683;28;20096;-81
2023/12/13 02:03:11;;;;;;;0.53;0.53;;;;;;;15.94;58.92;99631.03;5031943;28;20120;-80
2023/12/13 02:05:37;;;;;;;0.00;0.00;;;;;;;16.50;56.23;99620.25;5041813;28;20040;-80
2023/12/13 02:08:03;;;;;;;0.00;0.00;;;;;;;16.02;57.74;99630.66;5049979;28;20078;-80
2023/12/13 02:10:29;;;;;;;0.40;0.30;;;;;;;16.15;57.01;99630.03;5066309;28;20473;-81
2023/12/13 02:12:54;;;;;;;0.00;0.00;;;;;;;15.93;57.02;99639.03;5050991;28;20032;-80
2023/12/13 02:15:21;;;;;;;0.00;0.00;;;;;;;16.40;56.18;99622.53;5051851;28;20052;-80
2023/12/13 02:17:51;;;;;;;0.27;0.27;;;;;;;16.73;55.59;99626.91;5066344;28;20033;-80
2023/12/13 02:20:17;;;;;;;0.63;0.63;;;;;;;15.82;57.92;99630.81;5051955;28;20032;-80
2023/12/13 02:22:42;;;;;;;0.30;0.30;;;;;;;16.26;56.92;99627.66;5052950;28;20033;-80
2023/12/13 02:25:14;;;;;;;0.10;0.10;;;;;;;16.57;55.91;99631.31;5049814;28;20419;-80
2023/12/13 02:27:41;;;;;;;0.65;0.65;;;;;;;15.92;58.08;99624.13;5053505;28;20067;-81
2023/12/13 02:30:08;;;;;;;0.00;0.00;;;;;;;16.54;56.43;99620.91;5050621;28;20115;-80
2023/12/13 02:32:33;;;;;;;0.00;0.00;;;;;;;16.26;56.32;99622.38;5048754;28;20382;-80
2023/12/13 02:34:58;;;;;;;1.20;1.10;;;;;;;15.75;58.25;99617.91;5051940;28;20028;-81
2023/12/13 02:37:24;;;;;;;0.00;0.00;;;;;;;16.15;57.01;99614.19;5062038;28;20024;-80
2023/12/13 02:39:50;;;;;;;0.00;0.00;;;;;;;16.40;56.02;99608.47;5055211;28;20110;-80
2023/12/13 02:42:15;;;;;;;0.00;0.00;;;;;;;15.89;57.84;99613.78;5062728;28;20554;-81
2023/12/13 02:44:43;;;;;;;0.70;0.27;;;;;;;16.28;56.93;99610.00;5048284;28;20049;-81
2023/12/13 02:47:11;;;;;;;0.00;0.00;;;;;;;16.56;55.45;99613.78;5062302;28;20463;-80
2023/12/13 02:49:36;;;;;;;3.97;1.20;;;;;;;16.30;56.75;99613.38;5050221;28;20074;-80
2023/12/13 02:52:02;;;;;;;0.20;0.20;;;;;;;16.23;56.25;99612.03;5053375;28;20076;-81
2023/12/13 02:54:27;;;;;;;0.10;0.10;;;;;;;16.37;56.02;99609.47;5050840;28;20469;-80
2023/12/13 02:56:53;;;;;;;0.20;0.20;;;;;;;16.86;53.92;99615.69;5060866;28;20234;-80
2023/12/13 02:59:18;;;;;;;0.00;0.00;;;;;;;16.61;54.52;99611.75;5049476;28;20544;-80
2023/12/13 03:01:43;;;;;;;0.30;0.30;;;;;;;16.38;54.60;99621.75;5060821;28;20052;-80
2023/12/13 03:04:09;;;;;;;0.00;0.00;;;;;;;16.46;54.59;99616.06;5050027;28;20033;-81
2023/12/13 03:06:34;;;;;;;0.10;0.10;;;;;;;16.47;53.83;99614.28;5053398;28;20020;-80
2023/12/13 03:09:03;;;;;;;0.00;0.00;;;;;;;16.17;55.14;99617.59;5051186;28;20039;-80
2023/12/13 03:11:28;;;;;;;0.00;0.00;;;;;;;15.55;56.49;99615.44;5055671;28;20466;-80
2023/12/13 03:13:53;;;;;;;0.30;0.30;;;;;;;15.82;56.03;99607.97;5073172;28;20074;-80
2023/12/13 03:16:19;;;;;;;0.00;0.00;;;;;;;15.20;58.00;99613.63;5059508;28;20054;-80
2023/12/13 03:18:44;;;;;;;1.20;0.83;;;;;;;15.28;57.74;99613.25;5065276;28;20024;-80
2023/12/13 03:21:09;;;;;;;0.10;0.10;;;;;;;16.35;54.93;99608.72;5053502;28;20033;-80
2023/12/13 03:23:35;;;;;;;0.00;0.00;;;;;;;15.86;56.70;99608.66;5064330;28;20392;-80
2023/12/13 03:26:01;;;;;;;1.93;1.27;;;;;;;15.93;56.23;99610.88;5054960;28;20025;-80
2023/12/13 03:28:26;;;;;;;0.00;0.00;;;;;;;15.92;55.34;99611.84;5061738;28;20041;-80
2023/12/13 03:30:52;;;;;;;0.00;0.00;;;;;;;15.66;55.67;99613.13;5034343;28;20029;-80
2023/12/13 03:33:17;;;;;;;0.00;0.00;;;;;;;15.92;55.23;99603.94;5072036;28;20025;-80
2023/12/13 03:35:43;;;;;;;0.00;0.00;;;;;;;15.75;55.24;99610.00;5044890;28;20025;-80
2023/12/13 03:38:08;;;;;;;0.20;0.20;;;;;;;15.94;55.38;99611.75;5070606;28;20028;-81
2023/12/13 03:40:34;;;;;;;0.00;0.00;;;;;;;15.98;56.11;99608.03;5074186;28;20024;-80
2023/12/13 03:43:00;;;;;;;0.20;0.20;;;;;;;15.97;55.15;99601.03;5063709;28;20033;-81
2023/12/13 03:45:26;;;;;;;0.97;0.93;;;;;;;15.76;55.89;99595.91;5053636;28;20503;-80
2023/12/13 03:47:51;;;;;;;1.47;1.40;;;;;;;15.91;55.15;99598.75;5066865;28;20032;-80
2023/12/13 03:50:17;;;;;;;0.00;0.00;;;;;;;16.17;54.95;99601.78;5072599;28;20020;-80
2023/12/13 03:52:42;;;;;;;0.00;0.00;;;;;;;15.87;55.21;99599.84;5057108;28;20029;-80
2023/12/13 03:55:07;;;;;;;0.00;0.00;;;;;;;15.79;55.34;99597.56;5042444;28;20047;-81
2023/12/13 03:57:33;;;;;;;0.00;0.00;;;;;;;16.10;54.78;99595.97;5054457;28;20032;-81
2023/12/13 03:59:58;;;;;;;0.00;0.00;;;;;;;16.25;53.94;99595.19;5054807;28;20437;-80
2023/12/13 04:02:23;;;;;;;0.00;0.00;;;;;;;16.39;53.42;99589.16;5057437;28;20050;-81
2023/12/13 04:04:50;;;;;;;0.00;0.00;;;;;;;15.89;54.53;99588.25;5054229;28;20065;-80
2023/12/13 04:07:15;;;;;;;0.00;0.00;;;;;;;15.90;55.19;99597.03;5057140;28;20111;-81
2023/12/13 04:09:41;;;;;;;0.73;0.33;;;;;;;16.43;54.03;99582.78;5054988;28;20108;-81
2023/12/13 04:12:06;;;;;;;0.20;0.20;;;;;;;16.40;54.06;99588.25;5053497;28;20056;-80
2023/12/13 04:14:32;;;;;;;0.50;0.50;;;;;;;16.21;54.24;99595.41;5054548;28;20025;-81
2023/12/13 04:16:57;;;;;;;0.00;0.00;;;;;;;16.47;53.56;99594.00;5054792;28;20606;-80
2023/12/13 04:19:22;;;;;;;0.20;0.20;;;;;;;16.45;54.34;99593.25;5073085;28;20551;-80
2023/12/13 04:21:48;;;;;;;0.00;0.00;;;;;;;16.91;52.88;99593.41;5050529;28;20373;-80
2023/12/13 04:24:13;;;;;;;0.10;0.10;;;;;;;16.48;54.27;99600.16;5054118;28;20021;-80
2023/12/13 04:26:39;;;;;;;1.30;0.93;;;;;;;17.02;52.89;99595.44;5052011;28;20170;-81
2023/12/13 04:29:04;;;;;;;3.63;2.23;;;;;;;17.18;52.43;99589.28;5052934;28;20032;-81
2023/12/13 04:31:30;;;;;;;0.00;0.00;;;;;;;16.90;53.13;99585.56;5052437;28;20634;-80
2023/12/13 04:33:55;;;;;;;0.00;0.00;;;;;;;17.38;52.60;99590.75;5055616;28;20495;-81
2023/12/13 04:36:21;;;;;;;0.00;0.00;;;;;;;17.06;52.02;99586.41;5051151;28;20021;-81
2023/12/13 04:38:46;;;;;;;0.00;0.00;;;;;;;17.65;51.58;99590.94;5059219;28;20029;-81
2023/12/13 04:41:12;;;;;;;0.00;0.00;;;;;;;17.52;51.59;99590.81;5052323;28;20056;-80
2023/12/13 04:43:37;;;;;;;0.53;0.50;;;;;;;17.87;50.78;99589.66;5057143;28;20073;-81
2023/12/13 04:46:02;;;;;;;0.10;0.10;;;;;;;17.78;50.83;99589.28;5051303;28;20059;-80
2023/12/13 04:48:28;;;;;;;0.77;0.70;;;;;;;17.58;51.74;99597.53;5059365;28;20028;-80
2023/12/13 04:50:53;;;;;;;0.00;0.00;;;;;;;17.91;50.71;99591.19;5061942;28;20067;-80
2023/12/13 04:53:19;;;;;;;0.50;0.43;;;;;;;17.76;50.72;99590.31;5057617;28;20385;-81
2023/12/13 04:55:44;;;;;;;0.20;0.20;;;;;;;17.67;51.37;99593.47;5064029;28;20040;-80
2023/12/13 04:58:10;;;;;;;0.67;0.33;;;;;;;18.01;50.28;99584.44;5055780;28;20039;-80
2023/12/13 05:00:35;;;;;;;0.00;0.00;;;;;;;18.03;49.92;99584.34;5064473;28;20036;-80
2023/12/13 05:03:00;;;;;;;0.00;0.00;;;;;;;17.98;50.61;99579.31;5053165;28;20025;-80
2023/12/13 05:05:26;;;;;;;0.83;0.20;;;;;;;17.80;50.58;99576.84;5054777;28;20022;-80
2023/12/13 05:07:51;;;;;;;0.00;0.00;;;;;;;17.83;50.40;99580.22;5033741;28;20022;-81
2023/12/13 05:10:17;;;;;;;0.60;0.60;;;;;;;17.86;50.69;99574.75;5056097;28;20028;-81
2023/12/13 05:12:42;;;;;;;0.10;0.10;;;;;;;18.01;50.05;99579.16;5048245;28;20484;-81
2023/12/13 05:15:08;;;;;;;0.00;0.00;;;;;;;17.76;50.98;99587.66;5068647;28;20016;-81
2023/12/13 05:17:33;;;;;;;0.00;0.00;;;;;;;17.62;51.58;99591.13;5053626;28;20507;-80
2023/12/13 05:19:58;;;;;;;0.00;0.00;;;;;;;17.43;52.04;99586.94;5055140;28;20501;-80
2023/12/13 05:22:24;;;;;;;0.00;0.00;;;;;;;17.71;51.51;99577.38;5068432;28;20020;-80
2023/12/13 05:24:49;;;;;;;0.00;0.00;;;;;;;17.92;50.65;99569.13;5056344;28;20066;-80
2023/12/13 05:27:14;;;;;;;0.00;0.00;;;;;;;17.78;51.27;99576.06;5049821;28;20477;-81
2023/12/13 05:29:43;;;;;;;0.00;0.00;;;;;;;17.77;51.47;99577.00;5066882;28;20028;-80
2023/12/13 05:32:08;;;;;;;0.00;0.00;;;;;;;17.63;52.18;99590.19;5051743;28;20021;-80
2023/12/13 05:34:33;;;;;;;0.00;0.00;;;;;;;17.37;52.11;99584.63;5052382;28;20047;-80
2023/12/13 05:37:05;;;;;;;0.00;0.00;;;;;;;18.03;51.21;99582.53;5051392;28;20519;-81
2023/12/13 05:39:32;;;;;;;0.00;0.00;;;;;;;17.58;51.84;99586.97;5061955;28;20151;-80
2023/12/13 05:41:57;;;;;;;0.00;0.00;;;;;;;17.69;51.87;99578.41;5053253;28;20021;-80
2023/12/13 05:44:22;;;;;;;1.20;1.13;;;;;;;17.69;51.72;99589.81;5058461;28;20523;-80
2023/12/13 05:46:48;;;;;;;0.00;0.00;;;;;;;17.01;53.40;99580.53;5072967;28;20131;-80
2023/12/13 05:49:13;;;;;;;0.00;0.00;;;;;;;17.06;53.04;99591.69;5060844;28;20052;-80
2023/12/13 05:51:39;;;;;;;0.00;0.00;;;;;;;17.58;52.44;99592.25;5053099;28;20481;-81
2023/12/13 05:54:04;;;;;;;0.00;0.00;;;;;;;16.89;53.75;99586.50;5042632;28;20016;-80
2023/12/13 05:56:30;;;;;;;0.10;0.10;;;;;;;17.23;52.90;99592.53;5071227;28;20427;-78
2023/12/13 05:58:55;;;;;;;0.00;0.00;;;;;;;17.47;52.38;99590.22;5073033;28;20576;-81
2023/12/13 06:01:22;;;;;;;0.00;0.00;;;;;;;17.32;52.31;99586.69;5051641;28;20031;-81
2023/12/13 06:03:47;;;;;;;0.00;0.00;;;;;;;17.57;51.51;99585.25;5067851;28;20091;-80
2023/12/13 06:06:12;;;;;;;0.00;0.00;;;;;;;17.45;51.97;99585.03;5072056;28;20021;-80
2023/12/13 06:08:40;;;;;;;0.00;0.00;;;;;;;17.43;51.67;99589.56;5072505;28;20024;-80
2023/12/13 06:11:05;;;;;;;0.50;0.50;;;;;;;17.54;51.23;99596.00;5039718;28;20021;-80
2023/12/13 06:13:31;;;;;;;0.00;0.00;;;;;;;17.52;51.47;99592.63;5067678;28;20023;-80
2023/12/13 06:15:56;;;;;;;0.53;0.47;;;;;;;17.65;51.02;99598.84;5070216;28;20028;-80
2023/12/13 06:18:21;;;;;;;0.33;0.33;;;;;;;17.75;50.92;99601.81;5054813;28;20815;-80
2023/12/13 06:20:47;;;;;;;1.13;0.40;;;;;;;17.46;51.25;99602.59;5051512;28;20028;-80
2023/12/13 06:23:12;;;;;;;0.00;0.00;;;;;;;17.56;51.29;99597.63;5049896;28;20435;-81
2023/12/13 06:25:38;;;;;;;0.00;0.00;;;;;;;17.86;51.10;99587.94;5066172;28;20596;-80
2023/12/13 06:28:04;;;;;;;0.37;0.30;;;;;;;17.63;51.22;99590.19;5051607;28;20029;-80
2023/12/13 06:30:30;;;;;;;0.00;0.00;;;;;;;17.72;50.87;99600.22;5063439;28;20054;-80
2023/12/13 06:32:55;;;;;;;0.00;0.00;;;;;;;17.20;52.10;99597.94;5046982;28;20029;-81
2023/12/13 06:35:20;;;;;;;0.00;0.00;;;;;;;17.28;52.20;99593.94;5058205;28;20480;-80
2023/12/13 06:37:46;;;;;;;0.20;0.20;;;;;;;17.75;51.52;99589.47;5070302;28;20112;-81
2023/12/13 06:40:14;;;;;;;0.23;0.20;;;;;;;17.48;51.70;99591.94;5062524;28;20060;-80
2023/12/13 06:42:40;;;;;;;1.53;1.43;;;;;;;17.38;52.26;99596.91;5051074;28;20040;-80
2023/12/13 06:45:06;;;;;;;0.00;0.00;;;;;;;18.04;50.89;99589.53;5057855;28;20032;-81
2023/12/13 06:47:31;;;;;;;0.10;0.10;;;;;;;17.52;52.10;99597.91;5060915;28;20053;-80
2023/12/13 06:49:56;;;;;;;0.00;0.00;;;;;;;17.63;52.35;99595.47;5046985;28;20060;-80
2023/12/13 06:52:22;;;;;;;0.00;0.00;;;;;;;17.27;53.16;99600.16;5053412;28;20040;-80
2023/12/13 06:54:47;;;;;;;0.00;0.00;;;;;;;17.66;52.02;99595.28;5052489;28;20017;-79
2023/12/13 06:57:13;;;;;;;0.00;0.00;;;;;;;16.92;54.61;99588.97;5072020;28;20102;-80
2023/12/13 06:59:39;;;;;;;0.60;0.60;;;;;;;17.04;54.17;99596.19;5050833;28;20043;-80
2023/12/13 07:02:06;;;;;;;0.20;0.20;;;;;;;17.49;52.64;99595.41;5057532;28;20021;-80
2023/12/13 07:04:32;;;;;;;0.50;0.50;;;;;;;17.27;53.70;99601.97;5050928;28;20025;-80
2023/12/13 07:06:58;;;;;;;0.00;0.00;;;;;;;17.57;53.15;99601.09;5058686;28;20083;-79
2023/12/13 07:09:24;;;;;;;0.00;0.00;;;;;;;17.42;53.18;99603.72;5065995;28;20373;-79
2023/12/13 07:11:49;;;;;;;0.00;0.00;;;;;;;16.97;54.56;99597.47;5058607;28;20036;-79
2023/12/13 07:14:15;;;;;;;0.07;0.07;;;;;;;16.99;54.72;99606.16;5038976;28;20032;-79
2023/12/13 07:16:44;;;;;;;0.20;0.20;;;;;;;17.02;55.10;99606.00;5067080;28;20052;-79
2023/12/13 07:19:10;;;;;;;0.10;0.10;;;;;;;17.52;53.67;99611.13;5069478;28;20020;-80
2023/12/13 07:21:35;;;;;;;2.13;0.43;;;;;;;17.86;52.66;99606.44;5053880;28;20025;-80
2023/12/13 07:24:03;;;;;;;0.00;0.00;;;;;;;17.79;52.90;99617.41;5050766;28;20028;-79
2023/12/13 07:26:28;;;;;;;2.13;2.03;;;;;;;17.72;52.43;99621.38;5064115;28;20040;-80
2023/12/13 07:28:55;;;;;;;0.00;0.00;;;;;;;18.32;51.65;99611.63;5070441;28;20021;-79
2023/12/13 07:31:20;;;;;;;0.00;0.00;;;;;;;18.43;51.00;99617.09;5052607;28;20029;-80
2023/12/13 07:33:45;;;;;;;0.10;0.10;;;;;;;18.11;51.85;99612.00;5045109;28;20028;-80
2023/12/13 07:36:12;;;;;;;0.00;0.00;;;;;;;17.53;53.10;99620.72;5048919;28;20024;-80
2023/12/13 07:38:38;;;;;;;0.00;0.00;;;;;;;18.05;52.00;99622.09;5049416;28;20052;-80
2023/12/13 07:41:04;;;;;;;0.00;0.00;;;;;;;18.37;51.91;99621.91;5062936;28;20091;-79
2023/12/13 07:43:29;;;;;;;0.00;0.00;;;;;;;17.79;53.23;99625.34;5046318;28;20081;-80
2023/12/13 07:45:55;;;;;;;0.00;0.00;;;;;;;17.13;55.12;99627.34;5043674;28;20017;-80
2023/12/13 07:48:24;;;;;;;0.23;0.23;;;;;;;18.29;52.42;99625.06;5049119;28;20319;-79
2023/12/13 07:50:51;;;;;;;0.20;0.20;;;;;;;18.25;52.06;99628.84;5057418;28;20117;-80
2023/12/13 07:53:16;;;;;;;0.67;0.67;;;;;;;17.60;53.54;99637.94;5046041;28;20021;-80
2023/12/13 07:55:42;;;;;;;0.10;0.10;;;;;;;17.55;54.00;99637.34;5049123;28;20545;-80
2023/12/13 07:58:08;;;;;;;0.10;0.10;;;;;;;17.95;53.67;99642.94;5049495;28;20032;-80
2023/12/13 08:00:33;;;;;;;0.10;0.10;;;;;;;18.10;52.57;99639.38;5053402;28;20033;-81
2023/12/13 08:03:04;;;;;;;0.00;0.00;;;;;;;17.58;54.03;99645.09;5054392;28;20423;-81
2023/12/13 08:05:29;;;;;;;0.10;0.10;;;;;;;18.33;52.37;99637.16;5055711;28;20040;-81
2023/12/13 08:07:55;;;;;;;0.70;0.70;;;;;;;17.93;52.63;99642.22;5054856;28;20017;-81
2023/12/13 08:10:20;;;;;;;0.40;0.40;;;;;;;17.60;52.92;99648.50;5052658;28;20452;-81
2023/12/13 08:12:45;;;;;;;0.97;0.93;;;;;;;17.85;53.70;99647.06;5057709;28;20032;-81
2023/12/13 08:15:11;;;;;;;0.00;0.00;;;;;;;17.75;53.65;99650.25;5049458;28;20029;-79
2023/12/13 08:17:37;;;;;;;0.00;0.00;;;;;;;17.65;53.58;99651.72;5032481;28;20439;-79
2023/12/13 08:20:03;;;;;;;0.03;0.03;;;;;;;18.00;52.25;99651.47;5053514;28;20071;-79
2023/12/13 08:22:28;;;;;;;0.00;0.00;;;;;;;17.83;53.06;99659.50;5057264;28;20029;-77
2023/12/13 08:24:54;;;;;;;0.97;0.63;;;;;;;17.78;53.15;99652.69;5052261;28;20033;-81
2023/12/13 08:27:19;;;;;;;1.33;1.00;;;;;;;17.61;53.95;99655.47;5068258;28;20028;-80
2023/12/13 08:29:44;;;;;;;0.00;0.00;;;;;;;18.04;52.92;99655.63;5055905;28;20032;-81
2023/12/13 08:32:10;;;;;;;0.00;0.00;;;;;;;17.79;53.05;99654.41;5062164;28;20079;-81
2023/12/13 08:34:35;;;;;;;0.67;0.67;;;;;;;17.99;52.87;99655.03;5049765;28;20112;-81
2023/12/13 08:37:01;;;;;;;0.47;0.47;;;;;;;18.14;52.02;99648.84;5041421;28;20029;-81
2023/12/13 08:39:27;;;;;;;0.00;0.00;;;;;;;18.10;53.29;99663.19;5051572;28;20029;-81
2023/12/13 08:41:52;;;;;;;0.00;0.00;;;;;;;18.52;52.32;99651.88;5052479;28;20025;-80
2023/12/13 08:44:18;;;;;;;0.47;0.30;;;;;;;17.83;53.20;99662.16;5048409;28;20053;-80
2023/12/13 08:46:43;;;;;;;0.10;0.10;;;;;;;17.98;53.40;99669.19;5052666;28;20068;-81
2023/12/13 08:49:09;;;;;;;0.73;0.43;;;;;;;18.07;52.67;99666.00;5072663;28;20040;-80
2023/12/13 08:51:34;;;;;;;0.77;0.77;;;;;;;18.45;52.39;99661.97;5052469;28;20029;-81
2023/12/13 08:54:00;;;;;;;0.00;0.00;;;;;;;18.28;53.12;99668.31;5072614;28;20032;-81
2023/12/13 08:56:25;;;;;;;0.20;0.20;;;;;;;18.36;52.53;99658.13;5071941;28;20020;-81
2023/12/13 08:58:50;;;;;;;0.00;0.00;;;;;;;18.63;51.25;99665.31;5050306;28;20092;-81
2023/12/13 09:01:16;;;;;;;0.00;0.00;;;;;;;18.21;52.73;99674.91;5052175;28;20037;-81
2023/12/13 09:03:41;;;;;;;0.00;0.00;;;;;;;18.30;53.08;99674.38;5057500;28;20028;-81
2023/12/13 09:06:09;;;;;;;0.83;0.60;;;;;;;17.81;54.50;99681.59;5053135;28;20060;-81
2023/12/13 09:08:34;;;;;;;1.33;0.47;;;;;;;18.54;53.31;99677.28;5053035;28;20515;-81
2023/12/13 09:11:00;;;;;;;0.00;0.00;;;;;;;18.82;52.40;99680.88;5050694;28;20037;-81
2023/12/13 09:13:25;;;;;;;2.73;0.43;;;;;;;18.11;54.56;99691.31;5063815;28;20097;-81
2023/12/13 09:15:51;;;;;;;0.37;0.37;;;;;;;18.16;53.76;99692.84;5062987;28;20368;-80
2023/12/13 09:18:16;;;;;;;0.30;0.30;;;;;;;17.65;55.99;99693.97;5043442;28;20385;-81
2023/12/13 09:20:41;;;;;;;0.00;0.00;;;;;;;18.67;53.64;99693.28;5053052;28;20107;-81
2023/12/13 09:23:07;;;;;;;0.10;0.10;;;;;;;17.95;54.84;99695.81;5051927;28;20404;-81
2023/12/13 09:25:33;;;;;;;0.07;0.07;;;;;;;18.21;54.50;99696.06;5052743;28;20033;-81
2023/12/13 09:27:59;;;;;;;0.30;0.30;;;;;;;18.31;53.92;99699.84;5057370;28;20468;-81
2023/12/13 09:30:25;;;;;;;0.00;0.00;;;;;;;18.37;52.98;99694.22;5061196;28;20552;-81
2023/12/13 09:32:50;;;;;;;2.13;0.70;;;;;;;18.28;53.68;99700.03;5042082;28;20206;-81
2023/12/13 09:35:15;;;;;;;0.07;0.07;;;;;;;18.30;54.08;99700.81;5070185;28;20053;-81
2023/12/13 09:37:41;;;;;;;0.27;0.27;;;;;;;17.89;54.61;99702.28;5053333;28;20033;-80
2023/12/13 09:40:16;;;;;;;0.20;0.13;;;;;;;18.47;53.43;99702.44;5051871;28;20370;-81
2023/12/13 09:42:47;;;;;;;0.00;0.00;;;;;;;17.91;54.90;99710.13;5048290;28;20388;-80
2023/12/13 09:45:19;;;;;;;0.00;0.00;;;;;;;18.71;52.24;99702.75;5052749;28;20031;-81
2023/12/13 09:47:46;;;;;;;0.20;0.20;;;;;;;18.62;53.21;99719.16;5052287;28;20025;-81
2023/12/13 09:50:12;;;;;;;0.00;0.00;;;;;;;17.98;54.11;99714.13;5057974;28;20029;-82
2023/12/13 09:52:38;;;;;;;0.00;0.00;;;;;;;18.67;53.14;99717.09;5067980;28;20036;-81
2023/12/13 09:55:07;;;;;;;0.17;0.17;;;;;;;18.12;53.75;99729.19;5049647;28;20126;-81
2023/12/13 09:57:32;;;;;;;0.10;0.10;;;;;;;18.54;53.59;99730.22;5049280;28;20473;-81
2023/12/13 09:59:58;;;;;;;0.10;0.10;;;;;;;18.02;54.21;99722.75;5058311;28;20040;-81
2023/12/13 10:02:23;;;;;;;0.83;0.83;;;;;;;18.80;52.24;99715.38;5050684;28;20024;-81
2023/12/13 10:04:49;;;;;;;0.53;0.47;;;;;;;18.34;54.19;99728.78;5058868;28;20567;-82
2023/12/13 10:07:14;;;;;;;1.97;0.70;;;;;;;18.06;53.98;99725.13;5051546;28;20043;-81
2023/12/13 10:09:40;;;;;;;0.00;0.00;;;;;;;18.79;52.95;99726.94;5068086;28;20116;-81
2023/12/13 10:12:07;;;;;;;0.40;0.40;;;;;;;18.70;51.96;99730.13;5050747;28;20033;-80
2023/12/13 10:14:36;;;;;;;0.00;0.00;;;;;;;18.68;52.55;99725.88;5061446;28;20039;-80
2023/12/13 10:17:01;;;;;;;0.00;0.00;;;;;;;18.82;51.76;99732.03;5056550;28;20055;-81
2023/12/13 10:19:27;;;;;;;0.10;0.10;;;;;;;19.32;51.46;99734.28;5050395;28;20033;-80
2023/12/13 10:21:52;;;;;;;0.00;0.00;;;;;;;19.28;50.31;99733.59;5048411;28;20036;-81
2023/12/13 10:24:20;;;;;;;0.40;0.40;;;;;;;18.85;50.38;99733.63;5066327;28;20024;-81
2023/12/13 10:26:46;;;;;;;0.17;0.17;;;;;;;19.33;51.04;99743.94;5069929;28;20031;-81
2023/12/13 10:29:11;;;;;;;2.03;1.03;;;;;;;18.97;50.55;99747.94;5056247;28;20028;-81
2023/12/13 10:31:37;;;;;;;0.00;0.00;;;;;;;19.15;50.53;99754.72;5038963;28;20558;-81
2023/12/13 10:34:02;;;;;;;2.13;0.60;;;;;;;19.12;50.38;99760.22;5041954;28;20431;-81
2023/12/13 10:36:29;;;;;;;0.97;0.23;;;;;;;19.46;50.36;99757.22;5049564;28;20063;-81
2023/12/13 10:38:56;;;;;;;1.97;1.80;;;;;;;19.50;49.33;99748.13;5046877;28;20106;-81
2023/12/13 10:41:26;;;;;;;0.10;0.10;;;;;;;19.59;50.17;99754.63;5064924;28;20035;-81
2023/12/13 10:43:57;;;;;;;0.57;0.40;;;;;;;19.01;50.89;99754.72;5047901;28;20056;-81
2023/12/13 10:46:25;;;;;;;1.90;1.33;;;;;;;19.68;49.84;99759.34;5047599;28;20064;-81
2023/12/13 10:48:52;;;;;;;0.57;0.50;;;;;;;19.57;49.43;99745.94;5049620;28;20114;-81
2023/12/13 10:51:18;;;;;;;0.00;0.00;;;;;;;19.83;49.17;99741.63;5049675;28;20468;-81
2023/12/13 10:53:45;;;;;;;0.20;0.20;;;;;;;19.38;49.54;99751.56;5046524;28;20021;-82
2023/12/13 10:56:12;;;;;;;1.17;1.13;;;;;;;19.39;49.98;99754.13;5048541;28;20140;-81
2023/12/13 10:58:38;;;;;;;0.00;0.00;;;;;;;19.04;50.11;99757.22;5050829;28;20029;-80
2023/12/13 11:01:05;;;;;;;0.00;0.00;;;;;;;19.69;49.46;99758.41;5051704;28;20121;-81
2023/12/13 11:03:42;;;;;;;0.53;0.37;;;;;;;19.45;49.89;99759.03;5049602;28;20579;-80
2023/12/13 11:06:13;;;;;;;0.00;0.00;;;;;;;18.76;51.34;99769.44;5063790;28;20033;-81
2023/12/13 11:08:39;;;;;;;0.20;0.20;;;;;;;19.29;50.17;99763.63;5054385;28;20033;-81
2023/12/13 11:11:07;;;;;;;1.50;0.63;;;;;;;18.57;52.06;99772.34;5049021;28;20537;-81
2023/12/13 11:13:39;;;;;;;0.00;0.00;;;;;;;18.82;51.50;99755.84;5050376;28;20043;-81
2023/12/13 11:16:42;;;;;;;0.00;0.00;;;;;;;18.83;50.71;99769.94;5056625;28;20028;-80
2023/12/13 11:19:11;;;;;;;0.00;0.00;;;;;;;19.02;51.21;99767.03;5042956;28;20124;-81
2023/12/13 11:21:40;;;;;;;0.37;0.37;;;;;;;19.01;50.41;99765.31;5054298;28;20035;-81
2023/12/13 11:24:13;;;;;;;0.07;0.07;;;;;;;19.77;48.79;99774.66;5042973;28;20393;-81
2023/12/13 11:26:45;;;;;;;2.37;1.23;;;;;;;19.94;48.98;99767.44;5050470;28;20025;-81
2023/12/13 11:29:30;;;;;;;0.20;0.20;;;;;;;19.92;49.36;99769.31;5046280;28;20067;-81